createdAt,value
2022-08-26T00:01:24.335Z,84.66
2022-08-26T00:04:34.824Z,84.90
2022-08-26T00:07:40.311Z,86.43
2022-08-26T00:10:49.545Z,86.51
2022-08-26T00:13:56.009Z,86.39
2022-08-26T00:17:02.246Z,87.52
2022-08-26T00:20:10.282Z,90.73
2022-08-26T00:23:17.008Z,90.29
2022-08-26T00:26:23.083Z,89.69
2022-08-26T00:29:37.457Z,89.49
2022-08-26T00:32:44.066Z,89.74
2022-08-26T00:35:52.421Z,89.64
2022-08-26T00:38:58.906Z,89.22
2022-08-26T00:42:05.099Z,86.73
2022-08-26T00:45:12.704Z,84.93
2022-08-26T00:48:23.203Z,84.96
2022-08-26T00:51:30.001Z,84.03
2022-08-26T00:54:45.657Z,84.67
2022-08-26T00:57:52.592Z,85.00
2022-08-26T01:00:58.319Z,86.84
2022-08-26T01:04:04.631Z,87.40
2022-08-26T01:07:11.076Z,86.36
2022-08-26T01:10:21.559Z,87.16
2022-08-26T01:13:28.431Z,87.00
2022-08-26T01:16:35.998Z,87.14
2022-08-26T01:19:45.294Z,88.91
2022-08-26T01:22:58.368Z,88.56
2022-08-26T01:26:19.711Z,89.26
2022-08-26T01:29:26.651Z,90.44
2022-08-26T01:32:33.905Z,90.10
2022-08-26T01:35:39.748Z,88.93
2022-08-26T01:38:45.795Z,87.81
2022-08-26T01:41:56.356Z,89.68
2022-08-26T01:45:09.489Z,87.00
2022-08-26T01:48:20.167Z,88.90
2022-08-26T01:51:27.764Z,88.05
2022-08-26T01:54:33.541Z,87.97
2022-08-26T01:57:40.662Z,88.93
2022-08-26T02:00:50.443Z,88.00
2022-08-26T02:04:04.067Z,87.49
2022-08-26T02:07:10.620Z,87.79
2022-08-26T02:10:17.157Z,88.67
2022-08-26T02:13:30.474Z,88.80
2022-08-26T02:16:42.383Z,88.82
2022-08-26T02:19:50.777Z,90.01
2022-08-26T02:22:56.492Z,90.92
2022-08-26T02:26:19.356Z,91.01
2022-08-26T02:29:37.789Z,89.88
2022-08-26T02:32:44.052Z,91.16
2022-08-26T02:35:49.958Z,91.71
2022-08-26T02:38:56.538Z,90.97
2022-08-26T02:42:03.009Z,89.06
2022-08-26T02:45:09.715Z,91.10
2022-08-26T02:48:18.813Z,94.12
2022-08-26T02:51:24.890Z,93.77
2022-08-26T02:54:30.521Z,94.20
2022-08-26T02:57:36.554Z,93.77
2022-08-26T03:00:53.077Z,93.53
2022-08-26T03:04:01.556Z,94.25
2022-08-26T03:07:08.137Z,93.17
2022-08-26T03:10:14.826Z,92.43
2022-08-26T03:13:20.116Z,91.53
2022-08-26T03:16:25.571Z,91.24
2022-08-26T03:19:38.752Z,90.98
2022-08-26T03:22:47.660Z,91.70
2022-08-26T03:25:55.139Z,93.62
2022-08-26T03:29:20.378Z,94.24
2022-08-26T03:32:26.986Z,94.47
2022-08-26T03:35:35.431Z,94.37
2022-08-26T03:38:41.544Z,94.44
2022-08-26T03:41:49.225Z,96.44
2022-08-26T03:48:04.567Z,100.00
2022-08-26T03:51:19.426Z,100.00
2022-08-26T03:54:25.306Z,99.79
2022-08-26T03:57:31.886Z,99.57
2022-08-26T04:00:37.520Z,100.00
2022-08-26T04:04:00.417Z,99.65
2022-08-26T04:07:06.290Z,100.00
2022-08-26T04:10:14.877Z,100.00
2022-08-26T04:13:25.493Z,100.00
2022-08-26T04:16:33.141Z,100.00
2022-08-26T04:19:39.157Z,100.00
2022-08-26T04:22:45.914Z,100.00
2022-08-26T04:25:51.970Z,100.00
2022-08-26T04:28:57.852Z,100.00
2022-08-26T04:32:05.233Z,100.00
2022-08-26T04:35:11.749Z,100.00
2022-08-26T04:38:19.851Z,100.00
2022-08-26T04:41:26.077Z,100.00
2022-08-26T04:44:38.007Z,100.00
2022-08-26T04:47:45.188Z,100.00
2022-08-26T04:50:51.691Z,100.00
2022-08-26T04:53:59.376Z,100.00
2022-08-26T04:57:05.515Z,100.00
2022-08-26T05:00:13.734Z,100.00
2022-08-26T05:03:21.301Z,98.78
2022-08-26T05:06:27.463Z,98.49
2022-08-26T05:09:33.246Z,97.21
2022-08-26T05:12:38.897Z,97.10
2022-08-26T05:15:47.244Z,95.67
2022-08-26T05:18:55.135Z,96.01
2022-08-26T05:22:00.611Z,95.86
2022-08-26T05:25:07.138Z,96.82
2022-08-26T05:28:15.614Z,95.05
2022-08-26T05:31:24.924Z,95.21
2022-08-26T05:34:31.377Z,95.21
2022-08-26T05:37:39.183Z,94.85
2022-08-26T05:40:49.377Z,93.73
2022-08-26T05:44:00.840Z,90.35
2022-08-26T05:47:07.869Z,88.48
2022-08-26T05:50:14.972Z,89.51
2022-08-26T05:53:22.454Z,89.22
2022-08-26T05:56:30.292Z,89.13
2022-08-26T05:59:36.053Z,88.45
2022-08-26T06:02:44.679Z,89.25
2022-08-26T06:05:54.338Z,90.32
2022-08-26T06:09:02.358Z,91.21
2022-08-26T06:12:08.196Z,88.90
2022-08-26T06:15:13.927Z,87.08
2022-08-26T06:18:25.069Z,86.21
2022-08-26T06:21:34.774Z,84.74
2022-08-26T06:24:58.737Z,84.48
2022-08-26T06:28:05.521Z,81.41
2022-08-26T06:31:11.007Z,82.36
2022-08-26T06:34:17.079Z,82.99
2022-08-26T06:37:22.848Z,84.29
2022-08-26T06:40:29.870Z,83.17
2022-08-26T06:43:35.567Z,84.23
2022-08-26T06:46:42.924Z,82.98
2022-08-26T06:49:51.094Z,81.99
2022-08-26T06:52:57.137Z,81.53
2022-08-26T06:56:07.874Z,79.32
2022-08-26T06:59:16.552Z,78.76
2022-08-26T07:02:23.761Z,78.80
2022-08-26T07:05:36.070Z,78.09
2022-08-26T07:08:41.916Z,79.26
2022-08-26T07:11:48.639Z,80.30
2022-08-26T07:14:55.242Z,80.55
2022-08-26T07:18:03.453Z,80.71
2022-08-26T07:21:12.595Z,82.38
2022-08-26T07:24:18.230Z,81.53
2022-08-26T07:27:23.886Z,77.71
2022-08-26T07:30:29.646Z,76.60
2022-08-26T07:33:37.167Z,75.79
2022-08-26T07:36:42.459Z,75.29
2022-08-26T07:39:48.130Z,73.64
2022-08-26T07:42:54.855Z,73.04
2022-08-26T07:46:00.855Z,71.59
2022-08-26T07:49:06.387Z,71.74
2022-08-26T07:52:12.912Z,71.24
2022-08-26T07:55:18.407Z,71.70
2022-08-26T07:58:23.894Z,71.61
2022-08-26T08:01:33.099Z,71.12
2022-08-26T08:04:38.926Z,71.07
2022-08-26T08:07:45.594Z,70.34
2022-08-26T08:10:52.271Z,69.39
2022-08-26T08:13:58.403Z,67.96
2022-08-26T08:17:04.803Z,67.89
2022-08-26T08:20:12.930Z,67.97
2022-08-26T08:23:18.610Z,68.87
2022-08-26T08:26:26.582Z,68.58
2022-08-26T08:29:31.988Z,67.30
2022-08-26T08:32:39.250Z,67.55
2022-08-26T08:35:46.523Z,68.31
2022-08-26T08:38:52.436Z,67.09
2022-08-26T08:42:29.734Z,66.21
2022-08-26T08:45:39.825Z,66.25
2022-08-26T08:48:50.233Z,64.91
2022-08-26T08:52:05.192Z,64.10
2022-08-26T08:55:18.110Z,63.41
2022-08-26T08:58:36.122Z,62.76
2022-08-26T09:02:01.369Z,63.11
2022-08-26T09:05:17.154Z,63.23
2022-08-26T09:08:29.719Z,64.84
2022-08-26T09:11:36.160Z,62.80
2022-08-26T09:14:41.785Z,62.54
2022-08-26T09:18:21.701Z,61.98
2022-08-26T09:21:27.458Z,62.07
2022-08-26T09:24:41.862Z,61.97
2022-08-26T09:27:54.637Z,62.07
2022-08-26T09:31:25.690Z,60.63
2022-08-26T09:34:32.425Z,61.27
2022-08-26T09:41:05.161Z,61.41
2022-08-26T09:44:14.757Z,60.98
2022-08-26T09:47:39.764Z,61.68
2022-08-26T09:51:02.003Z,59.86
2022-08-26T09:54:08.317Z,60.25
2022-08-26T09:57:25.442Z,59.99
2022-08-26T10:00:39.345Z,58.89
2022-08-26T10:03:47.074Z,59.05
2022-08-26T10:07:05.316Z,58.50
2022-08-26T10:10:40.193Z,58.40
2022-08-26T10:13:57.228Z,58.64
2022-08-26T10:17:20.440Z,58.69
2022-08-26T10:20:31.586Z,59.13
2022-08-26T10:23:50.520Z,59.05
2022-08-26T10:27:23.249Z,59.47
2022-08-26T10:30:40.665Z,56.31
2022-08-26T10:33:48.860Z,56.73
2022-08-26T10:37:13.604Z,57.99
2022-08-26T10:40:26.275Z,57.25
2022-08-26T10:43:48.161Z,57.39
2022-08-26T10:47:02.000Z,56.36
2022-08-26T10:50:08.539Z,58.73
2022-08-26T10:53:25.142Z,56.20
2022-08-26T10:56:48.714Z,54.95
2022-08-26T11:00:29.464Z,56.70
2022-08-26T11:04:11.577Z,57.49
2022-08-26T11:07:32.728Z,55.23
2022-08-26T11:10:59.024Z,56.07
2022-08-26T11:14:09.265Z,55.16
2022-08-26T11:17:46.658Z,54.44
2022-08-26T11:20:51.939Z,55.43
2022-08-26T11:23:57.467Z,54.88
2022-08-26T11:27:03.380Z,55.30
2022-08-26T11:30:37.497Z,56.10
2022-08-26T11:33:52.332Z,55.03
2022-08-26T11:37:01.867Z,55.34
2022-08-26T11:40:15.023Z,54.60
2022-08-26T11:43:26.398Z,54.51
2022-08-26T11:46:37.943Z,54.50
2022-08-26T11:49:45.504Z,53.28
2022-08-26T11:52:57.379Z,54.45
2022-08-26T11:56:10.056Z,54.37
2022-08-26T11:59:28.048Z,54.06
